PWSweather.com
Personal Weather Stations
Station Observations
FAUSKE
Nordland, Norway, FauskeNO 8200

Nordland, NorwayFauskeNO 8200

Lat: 67.2607586, Lon: 15.4114204

Elevation: 40

Station Type: Davis Vantage PRO2

http://www.bjornli.net/weather.html

Latest ConditionsUpdated 6:40:09 AM GMT+01:01 Thursday, Oct 23, 2014
Currently Today's Max Today's Min Today's Average
Temperature 38.7°F3.7°C 39.1°F3.9°C 36.2°F2.3°C 37.8°F3.2°C
Dew Point 27.6°F-2.4°C 28.1°F-2.2°C 25.2°F-3.8°C 26.6°F-3.0°C
Winds 28.0 mph ESE45.1 kmh ESE 35.0 mph ESE56.3 kmh ESE - 22.8 mph 36.7 kmh
Wind Gusts 36.0 mph57.9 kmh 45.0 mph72.4 kmh - -
Humidity 64% 66% 61% 64%
Pressure 29.84 in1010.5 mb 29.95 in1014.2 mb 29.84 in1010.5 mb -
Hour Temp Dew Point Humidity Winds Wind Gusts Pressure Precip Precip Rate Daily Precip Total
06:40 AM 38.7°F3.7°C 27.6°F-2.4°C 64% 28.0 mph ESE45.1 kmh ESE 36.0 mph57.9 kmh 29.84 in1010.5 mb 0.00 in0.0 mm 0.00 in/hr0.0 mm/hr 0.00 in0.0 mm
06:30 AM 38.8°F3.8°C 27.7°F-2.4°C 64% 33.0 mph ESE53.1 kmh ESE 34.0 mph54.7 kmh 29.85 in1010.8 mb 0.00 in0.0 mm 0.00 in/hr0.0 mm/hr 0.00 in0.0 mm
06:10 AM 38.7°F3.7°C 27.2°F-2.7°C 63% 16.0 mph SE25.7 kmh SE 45.0 mph72.4 kmh 29.85 in1010.8 mb 0.00 in0.0 mm 0.00 in/hr0.0 mm/hr 0.00 in0.0 mm
06:00 AM 38.8°F3.8°C 28.1°F-2.2°C 65% 27.0 mph E43.5 kmh E 30.0 mph48.3 kmh 29.85 in1010.8 mb 0.00 in0.0 mm 0.00 in/hr0.0 mm/hr 0.00 in0.0 mm
05:40 AM 38.7°F3.7°C 27.2°F-2.7°C 63% 35.0 mph ESE56.3 kmh ESE 41.0 mph66.0 kmh 29.85 in1010.8 mb 0.00 in0.0 mm 0.00 in/hr0.0 mm/hr 0.00 in0.0 mm
05:30 AM 38.8°F3.8°C 27.3°F-2.6°C 63% 31.0 mph ESE49.9 kmh ESE 33.0 mph53.1 kmh 29.86 in1011.2 mb 0.00 in0.0 mm 0.00 in/hr0.0 mm/hr 0.00 in0.0 mm
05:10 AM 38.9°F3.8°C 27.0°F-2.8°C 62% 24.0 mph SE38.6 kmh SE 39.0 mph62.8 kmh 29.86 in1011.2 mb 0.00 in0.0 mm 0.00 in/hr0.0 mm/hr 0.00 in0.0 mm
05:00 AM 39.1°F3.9°C 27.6°F-2.4°C 63% 32.0 mph SE51.5 kmh SE 39.0 mph62.8 kmh 29.87 in1011.5 mb 0.00 in0.0 mm 0.00 in/hr0.0 mm/hr 0.00 in0.0 mm
04:40 AM 38.8°F3.8°C 26.9°F-2.8°C 62% 24.0 mph SE38.6 kmh SE 36.0 mph57.9 kmh 29.87 in1011.5 mb 0.00 in0.0 mm 0.00 in/hr0.0 mm/hr 0.00 in0.0 mm
04:30 AM 39.0°F3.9°C 26.7°F-2.9°C 61% 28.0 mph ESE45.1 kmh ESE 29.0 mph46.7 kmh 29.87 in1011.5 mb 0.00 in0.0 mm 0.00 in/hr0.0 mm/hr 0.00 in0.0 mm
04:10 AM 38.8°F3.8°C 26.9°F-2.8°C 62% 30.0 mph SE48.3 kmh SE 37.0 mph59.5 kmh 29.89 in1012.2 mb 0.00 in0.0 mm 0.00 in/hr0.0 mm/hr 0.00 in0.0 mm
04:00 AM 38.7°F3.7°C 26.8°F-2.9°C 62% 24.0 mph ESE38.6 kmh ESE 27.0 mph43.5 kmh 29.90 in1012.5 mb 0.00 in0.0 mm 0.00 in/hr0.0 mm/hr 0.00 in0.0 mm
03:40 AM 38.5°F3.6°C 27.0°F-2.8°C 63% 22.0 mph SE35.4 kmh SE 32.0 mph51.5 kmh 29.89 in1012.2 mb 0.00 in0.0 mm 0.00 in/hr0.0 mm/hr 0.00 in0.0 mm
03:30 AM 38.2°F3.4°C 26.7°F-2.9°C 63% 16.0 mph SE25.7 kmh SE 29.0 mph46.7 kmh 29.89 in1012.2 mb 0.00 in0.0 mm 0.00 in/hr0.0 mm/hr 0.00 in0.0 mm
03:10 AM 37.7°F3.2°C 27.0°F-2.8°C 65% 20.0 mph SE32.2 kmh SE 30.0 mph48.3 kmh 29.90 in1012.5 mb 0.00 in0.0 mm 0.00 in/hr0.0 mm/hr 0.00 in0.0 mm
03:00 AM 37.5°F3.1°C 26.8°F-2.9°C 65% 29.0 mph SE46.7 kmh SE 29.0 mph46.7 kmh 29.90 in1012.5 mb 0.00 in0.0 mm 0.00 in/hr0.0 mm/hr 0.00 in0.0 mm
02:40 AM 37.0°F2.8°C 26.3°F-3.2°C 65% 11.0 mph SE17.7 kmh SE 27.0 mph43.5 kmh 29.90 in1012.5 mb 0.00 in0.0 mm 0.00 in/hr0.0 mm/hr 0.00 in0.0 mm
02:30 AM 37.0°F2.8°C 26.0°F-3.3°C 64% 18.0 mph E29.0 kmh E 22.0 mph35.4 kmh 29.90 in1012.5 mb 0.00 in0.0 mm 0.00 in/hr0.0 mm/hr 0.00 in0.0 mm
02:10 AM 37.0°F2.8°C 26.3°F-3.2°C 65% 31.0 mph ESE49.9 kmh ESE 33.0 mph53.1 kmh 29.91 in1012.9 mb 0.00 in0.0 mm 0.00 in/hr0.0 mm/hr 0.00 in0.0 mm
02:00 AM 37.0°F2.8°C 25.6°F-3.6°C 63% 16.0 mph E25.7 kmh E 23.0 mph37.0 kmh 29.91 in1012.9 mb 0.00 in0.0 mm 0.00 in/hr0.0 mm/hr 0.00 in0.0 mm
01:40 AM 36.8°F2.7°C 25.8°F-3.4°C 64% 19.0 mph E30.6 kmh E 34.0 mph54.7 kmh 29.92 in1013.2 mb 0.00 in0.0 mm 0.00 in/hr0.0 mm/hr 0.00 in0.0 mm
01:30 AM 36.8°F2.7°C 25.4°F-3.7°C 63% 14.0 mph ESE22.5 kmh ESE 19.0 mph30.6 kmh 29.93 in1013.5 mb 0.00 in0.0 mm 0.00 in/hr0.0 mm/hr 0.00 in0.0 mm
01:10 AM 36.7°F2.6°C 25.3°F-3.7°C 63% 20.0 mph SE32.2 kmh SE 33.0 mph53.1 kmh 29.94 in1013.9 mb 0.00 in0.0 mm 0.00 in/hr0.0 mm/hr 0.00 in0.0 mm
01:00 AM 36.7°F2.6°C 25.7°F-3.5°C 64% 17.0 mph SE27.4 kmh SE 25.0 mph40.2 kmh 29.94 in1013.9 mb 0.00 in0.0 mm 0.00 in/hr0.0 mm/hr 0.00 in0.0 mm
12:40 AM 36.5°F2.5°C 25.5°F-3.6°C 64% 19.0 mph SE30.6 kmh SE 31.0 mph49.9 kmh 29.94 in1013.9 mb 0.00 in0.0 mm 0.00 in/hr0.0 mm/hr 0.00 in0.0 mm
12:30 AM 36.6°F2.6°C 26.0°F-3.3°C 65% 20.0 mph SE32.2 kmh SE 24.0 mph38.6 kmh 29.95 in1014.2 mb 0.00 in0.0 mm 0.00 in/hr0.0 mm/hr 0.00 in0.0 mm
12:10 AM 36.2°F2.3°C 25.2°F-3.8°C 64% 22.0 mph E35.4 kmh E 35.0 mph56.3 kmh 29.95 in1014.2 mb 0.00 in0.0 mm 0.00 in/hr0.0 mm/hr 0.00 in0.0 mm
12:00 AM 36.2°F2.3°C 26.0°F-3.3°C 66% 11.0 mph SE17.7 kmh SE 19.0 mph30.6 kmh 29.95 in1014.2 mb 0.00 in0.0 mm 0.00 in/hr0.0 mm/hr 0.00 in0.0 mm